createdAt,value
2022-08-20T00:04:21.394Z,13.55
2022-08-20T00:09:23.224Z,10.68
2022-08-20T00:14:24.735Z,12.25
2022-08-20T00:19:27.108Z,8.43
2022-08-20T00:24:28.737Z,8.45
2022-08-20T00:29:30.473Z,7.97
2022-08-20T00:34:32.032Z,7.95
2022-08-20T00:39:33.662Z,11.23
2022-08-20T00:44:35.861Z,9.55
2022-08-20T00:49:37.898Z,9.38
2022-08-20T00:54:49.671Z,8.98
2022-08-20T00:59:52.532Z,10.55
2022-08-20T01:04:55.710Z,10.95
2022-08-20T01:09:58.830Z,13.77
2022-08-20T01:15:03.719Z,13.98
2022-08-20T01:20:24.807Z,15.38
2022-08-20T01:25:53.252Z,13.73
2022-08-20T01:30:55.029Z,18.70
2022-08-20T01:35:56.721Z,18.80
2022-08-20T01:41:45.252Z,21.42
2022-08-20T01:46:49.918Z,23.85
2022-08-20T01:51:57.776Z,26.73
2022-08-20T01:57:10.340Z,20.23
2022-08-20T02:02:13.239Z,23.63
2022-08-20T02:07:17.492Z,20.42
2022-08-20T02:12:19.540Z,21.20
2022-08-20T02:17:23.142Z,23.83
2022-08-20T02:22:34.990Z,23.42
2022-08-20T02:27:39.266Z,22.38
2022-08-20T02:32:41.987Z,26.25
2022-08-20T02:37:45.064Z,23.67
2022-08-20T02:42:47.674Z,27.25
2022-08-20T02:47:54.237Z,30.58
2022-08-20T02:52:56.379Z,33.08
2022-08-20T02:57:59.947Z,29.65
2022-08-20T03:03:02.149Z,27.92
2022-08-20T03:08:07.055Z,29.17
2022-08-20T03:13:12.394Z,29.50
2022-08-20T03:18:16.799Z,31.35
2022-08-20T03:23:21.226Z,34.35
2022-08-20T03:28:22.965Z,30.60
2022-08-20T03:33:24.539Z,32.42
2022-08-20T03:38:32.854Z,29.73
2022-08-20T03:43:35.508Z,23.58
2022-08-20T03:48:38.482Z,35.15
2022-08-20T03:53:40.176Z,28.30
2022-08-20T03:58:41.734Z,28.20
2022-08-20T04:03:43.374Z,25.33
2022-08-20T04:08:44.958Z,23.77
2022-08-20T04:13:46.585Z,29.42
2022-08-20T04:24:06.026Z,28.00
2022-08-20T04:29:08.132Z,28.73
2022-08-20T04:34:09.687Z,27.80
2022-08-20T04:39:11.252Z,25.35
2022-08-20T04:44:13.079Z,28.95
2022-08-20T04:49:14.703Z,26.85
2022-08-20T04:54:16.442Z,21.15
2022-08-20T04:59:18.067Z,22.75
2022-08-20T05:04:19.575Z,23.23
2022-08-20T05:09:21.146Z,21.85
2022-08-20T05:14:22.681Z,24.08
2022-08-20T05:19:24.345Z,23.80
2022-08-20T05:24:26.145Z,20.40
2022-08-20T05:29:28.518Z,19.15
2022-08-20T05:34:30.100Z,20.70
2022-08-20T05:39:35.466Z,27.58
2022-08-20T05:44:39.214Z,16.58
2022-08-20T05:49:40.741Z,16.67
2022-08-20T05:54:42.241Z,16.77
2022-08-20T05:59:43.827Z,15.10
2022-08-20T06:04:45.371Z,15.15
2022-08-20T06:09:47.109Z,13.85
2022-08-20T06:14:48.770Z,14.73
2022-08-20T06:19:50.978Z,11.60
2022-08-20T06:24:53.082Z,14.10
2022-08-20T06:29:54.965Z,12.23
2022-08-20T06:34:56.639Z,10.50
2022-08-20T06:40:03.111Z,9.75
2022-08-20T06:45:05.729Z,8.25
2022-08-20T06:50:16.851Z,9.60
2022-08-20T06:55:18.628Z,6.10
2022-08-20T07:00:20.682Z,8.13
2022-08-20T07:05:22.485Z,6.20
2022-08-20T07:10:25.827Z,5.28
2022-08-20T07:15:27.750Z,4.25
2022-08-20T07:20:31.907Z,5.28
2022-08-20T07:25:33.915Z,4.57
2022-08-20T07:30:56.640Z,4.03
2022-08-20T07:36:02.038Z,5.65
2022-08-20T07:41:13.469Z,7.22
2022-08-20T07:46:20.815Z,16.70
2022-08-20T07:51:23.361Z,5.38
2022-08-20T07:56:25.030Z,4.40
2022-08-20T08:01:30.752Z,11.98
2022-08-20T08:06:45.294Z,5.10
2022-08-20T08:11:50.219Z,7.80
2022-08-20T08:16:55.179Z,7.35
2022-08-20T08:21:57.444Z,9.57
2022-08-20T08:27:00.570Z,5.18
2022-08-20T08:32:06.187Z,6.78
2022-08-20T08:37:07.863Z,6.88
2022-08-20T08:42:44.023Z,7.63
2022-08-20T08:47:46.022Z,8.63
2022-08-20T08:52:52.375Z,8.55
2022-08-20T08:57:56.738Z,9.65
2022-08-20T09:03:01.304Z,6.20
2022-08-20T09:08:06.731Z,9.60
2022-08-20T09:13:09.003Z,7.68
2022-08-20T09:18:10.651Z,8.73
2022-08-20T09:23:12.605Z,7.80
2022-08-20T09:28:15.410Z,4.97
2022-08-20T09:33:17.480Z,6.82
2022-08-20T09:38:19.097Z,5.45
2022-08-20T09:43:20.762Z,5.63
2022-08-20T09:48:29.595Z,4.63
2022-08-20T09:53:34.622Z,6.78
2022-08-20T09:58:47.239Z,5.70
2022-08-20T10:03:49.788Z,6.70
2022-08-20T10:08:51.357Z,6.70
2022-08-20T10:13:52.991Z,7.47
2022-08-20T10:18:54.614Z,4.05
2022-08-20T10:23:56.701Z,4.43
2022-08-20T10:28:58.305Z,7.38
2022-08-20T10:33:59.841Z,3.53
2022-08-20T10:39:01.528Z,4.32
2022-08-20T10:44:04.406Z,7.68
2022-08-20T10:49:06.337Z,3.83
2022-08-20T10:54:08.254Z,6.50
2022-08-20T10:59:14.402Z,6.80
2022-08-20T11:04:16.053Z,3.53
2022-08-20T11:09:17.608Z,5.93
2022-08-20T11:14:19.357Z,6.57
2022-08-20T11:19:21.037Z,6.70
2022-08-20T11:24:22.929Z,4.38
2022-08-20T11:29:24.842Z,2.97
2022-08-20T11:34:26.559Z,7.88
2022-08-20T11:39:28.306Z,4.30
2022-08-20T11:44:29.894Z,2.53
2022-08-20T11:49:34.483Z,3.50
2022-08-20T11:54:40.347Z,4.55
2022-08-20T11:59:42.269Z,3.63
2022-08-20T12:04:44.408Z,6.68
2022-08-20T12:09:51.067Z,8.88
2022-08-20T12:14:55.432Z,5.38
2022-08-20T12:19:59.438Z,5.00
2022-08-20T12:25:01.223Z,9.63
2022-08-20T12:30:07.397Z,10.73
2022-08-20T12:35:10.692Z,5.70
2022-08-20T12:40:16.028Z,10.23
2022-08-20T12:45:18.447Z,7.70
2022-08-20T12:50:24.726Z,9.70
2022-08-20T12:55:29.026Z,4.68
2022-08-20T13:00:34.215Z,7.00
2022-08-20T13:05:36.730Z,5.22
2022-08-20T13:10:44.248Z,5.07
2022-08-20T13:15:46.175Z,5.10
2022-08-20T13:20:48.694Z,4.05
2022-08-20T13:25:50.319Z,5.27
2022-08-20T13:30:52.071Z,2.78
2022-08-20T13:35:54.115Z,5.07
2022-08-20T13:40:55.774Z,3.60
2022-08-20T13:45:57.397Z,5.53
2022-08-20T13:50:59.042Z,6.47
2022-08-20T13:56:00.753Z,6.80
2022-08-20T14:01:02.408Z,7.95
2022-08-20T14:06:04.377Z,4.65
2022-08-20T14:11:06.319Z,4.53
2022-08-20T14:16:21.317Z,4.60
2022-08-20T14:21:28.888Z,7.25
2022-08-20T14:26:30.457Z,4.97
2022-08-20T14:31:32.008Z,4.88
2022-08-20T14:36:33.538Z,7.65
2022-08-20T14:41:35.132Z,4.15
2022-08-20T14:46:36.729Z,5.50
2022-08-20T14:51:38.788Z,4.35
2022-08-20T14:56:40.522Z,4.55
2022-08-20T15:01:42.396Z,6.03
2022-08-20T15:06:44.015Z,5.93
2022-08-20T15:11:46.892Z,4.50
2022-08-20T15:16:48.634Z,6.68
2022-08-20T15:21:50.301Z,7.45
2022-08-20T15:26:51.922Z,5.55
2022-08-20T15:31:53.545Z,5.43
2022-08-20T15:36:57.214Z,4.97
2022-08-20T15:41:58.752Z,4.70
2022-08-20T15:47:20.737Z,6.25
2022-08-20T15:52:25.316Z,4.28
2022-08-20T15:57:48.585Z,7.88
2022-08-20T16:03:19.773Z,3.38
2022-08-20T16:08:27.414Z,7.10
2022-08-20T16:13:40.554Z,3.85
2022-08-20T16:18:44.876Z,9.50
2022-08-20T16:23:46.544Z,7.25
2022-08-20T16:29:13.675Z,3.72
2022-08-20T16:34:34.295Z,4.55
2022-08-20T16:39:53.769Z,5.32
2022-08-20T16:44:56.885Z,4.30
2022-08-20T16:50:19.997Z,5.07
2022-08-20T16:55:24.590Z,4.35
2022-08-20T17:00:34.973Z,6.25
2022-08-20T17:05:45.497Z,4.20
2022-08-20T17:11:06.428Z,3.05
2022-08-20T17:16:18.813Z,4.28
2022-08-20T17:21:33.184Z,6.05
2022-08-20T17:26:44.452Z,5.60
2022-08-20T17:31:50.482Z,4.43
2022-08-20T17:37:08.604Z,6.85
2022-08-20T17:42:18.065Z,3.47
2022-08-20T17:47:26.702Z,6.35
2022-08-20T17:52:34.437Z,4.15
2022-08-20T17:57:40.028Z,3.33
2022-08-20T18:02:43.390Z,5.40
2022-08-20T18:07:58.621Z,7.15
2022-08-20T18:13:18.995Z,6.10
2022-08-20T18:18:29.806Z,2.55
2022-08-20T18:23:36.618Z,4.90
2022-08-20T18:28:52.689Z,5.18
2022-08-20T18:33:54.955Z,5.32
2022-08-20T18:39:05.177Z,4.45
2022-08-20T18:44:10.126Z,3.13
2022-08-20T18:49:14.812Z,4.93
2022-08-20T18:54:30.616Z,5.78
2022-08-20T18:59:37.962Z,6.03
2022-08-20T19:04:39.695Z,6.68
2022-08-20T19:10:27.596Z,5.82
2022-08-20T19:15:32.413Z,5.95
2022-08-20T19:25:48.398Z,8.45
2022-08-20T19:30:50.890Z,5.68
2022-08-20T19:35:52.560Z,6.63
2022-08-20T19:40:55.975Z,7.28
2022-08-20T19:46:16.493Z,4.85
2022-08-20T19:51:45.831Z,7.00
2022-08-20T19:56:57.726Z,10.10
2022-08-20T20:02:04.432Z,4.45
2022-08-20T20:07:41.350Z,5.47
2022-08-20T20:12:42.993Z,10.93
2022-08-20T20:17:44.865Z,5.50
2022-08-20T20:22:56.186Z,7.20
2022-08-20T20:28:09.697Z,4.25
2022-08-20T20:33:35.534Z,6.45
2022-08-20T20:38:39.893Z,10.65
2022-08-20T20:43:42.978Z,4.57
2022-08-20T20:48:49.574Z,11.45
2022-08-20T20:53:54.975Z,6.72
2022-08-20T20:58:57.114Z,5.82
2022-08-20T21:03:58.688Z,9.85
2022-08-20T21:09:00.665Z,8.18
2022-08-20T21:14:02.263Z,9.10
2022-08-20T21:19:08.509Z,6.72
2022-08-20T21:24:11.135Z,9.38
2022-08-20T21:29:17.065Z,12.93
2022-08-20T21:34:19.336Z,5.40
2022-08-20T21:39:21.196Z,7.28
2022-08-20T21:44:26.532Z,4.88
2022-08-20T21:49:29.458Z,6.22
2022-08-20T21:54:33.037Z,6.30
2022-08-20T21:59:43.218Z,9.20
2022-08-20T22:04:45.162Z,10.77
2022-08-20T22:09:46.702Z,8.70
2022-08-20T22:14:49.142Z,9.43
2022-08-20T22:19:50.764Z,8.10
2022-08-20T22:24:52.454Z,10.30
2022-08-20T22:29:54.025Z,6.90
2022-08-20T22:34:58.198Z,10.05
2022-08-20T22:39:59.876Z,8.18
2022-08-20T22:45:01.561Z,7.75
2022-08-20T22:50:04.265Z,9.55
2022-08-20T22:55:06.612Z,11.90
2022-08-20T23:00:12.285Z,7.00
2022-08-20T23:05:17.188Z,6.18
2022-08-20T23:10:19.102Z,7.47
2022-08-20T23:15:20.656Z,9.43
2022-08-20T23:20:22.411Z,9.57
2022-08-20T23:25:24.337Z,12.02
2022-08-20T23:30:28.701Z,7.38
2022-08-20T23:35:33.059Z,12.77
2022-08-20T23:40:35.691Z,9.38
2022-08-20T23:45:40.178Z,8.60
2022-08-20T23:50:41.948Z,8.20
2022-08-20T23:55:43.776Z,7.20
